This is the latest recevied weather packets stored in our database for station/object WX4ET. If no packets are shown the sender has not sent any weather packets the latest 10 day(s).
| Time | Temp. | Humidity | Pressure | Rain* | Wind** | Luminosity | Snow |
|---|---|---|---|---|---|---|---|
| 1777562666 | 17.22° C | 60% | 1008.8 hPa | 0 mm | - | 354 W/m² | - |
| 1777562366 | 16.67° C | 61% | 1009 hPa | 0 mm | - | 663 W/m² | - |
| 1777562062 | 16.11° C | 63% | 1008.6 hPa | 0 mm | - | 628 W/m² | - |
| 1777561759 | 16.67° C | 61% | 1008.7 hPa | 0 mm | - | 219 W/m² | - |
| 1777561454 | 16.11° C | 64% | 1008.7 hPa | 0 mm | - | 578 W/m² | - |
| 1777561149 | 15.56° C | 64% | 1008.8 hPa | 0 mm | - | 291 W/m² | - |
| 1777560844 | 16.67° C | 64% | 1008.9 hPa | 0 mm | - | 183 W/m² | - |
| 1777560543 | 16.67° C | 66% | 1009 hPa | 0 mm | - | 742 W/m² | - |
| 1777560241 | 16.67° C | 65% | 1008.8 hPa | 0 mm | - | 735 W/m² | - |
| 1777559937 | 16.11° C | 66% | 1008.9 hPa | 0 mm | - | 387 W/m² | - |
| 1777559631 | 16.11° C | 68% | 1008.9 hPa | 0 mm | - | 763 W/m² | - |
| 1777559330 | 16.67° C | 67% | 1008.6 hPa | 0 mm | - | 715 W/m² | - |
| 1777559026 | 16.67° C | 65% | 1008.6 hPa | 0 mm | - | 639 W/m² | - |
| 1777558721 | 16.67° C | 67% | 1008.4 hPa | 0 mm | - | 591 W/m² | - |
| 1777558417 | 16.11° C | 67% | 1008.6 hPa | 0 mm | - | 552 W/m² | - |
| 1777558114 | 16.11° C | 69% | 1008.6 hPa | 0 mm | - | 521 W/m² | - |
| 1777557810 | 15.56° C | 68% | 1008.7 hPa | 0 mm | - | 538 W/m² | - |
| 1777557507 | 14.44° C | 74% | 1008.9 hPa | 0 mm | - | 289 W/m² | - |
| 1777557204 | 15° C | 74% | 1008.8 hPa | 0 mm | - | 157 W/m² | - |
| 1777556900 | 15° C | 75% | 1008.8 hPa | 0 mm | - | 265 W/m² | - |
| 1777556595 | 15.56° C | 72% | 1008.9 hPa | 0 mm | - | 100 W/m² | - |
| 1777556295 | 16.11° C | 70% | 1008.8 hPa | 0 mm | - | 449 W/m² | - |
| 1777555991 | 16.11° C | 70% | 1008.7 hPa | 0 mm | - | 174 W/m² | - |
| 1777555686 | 15° C | 76% | 1008.7 hPa | 0 mm | - | 159 W/m² | - |
| 1777555383 | 14.44° C | 76% | 1008.7 hPa | 0 mm | - | 369 W/m² | - |
* Rain latest hour (hover to see other rain measurements)
** Current wind speed in m/s (hover to see current wind gust speed)